Tiempo atmosférico en la estación meteorológica de Cala, Huelva (618 m.)

Fecha
DESCASC
Temp. máxima en grados centígrados (hora)
DESCASC
Temp. mínima en grados centígrados (hora)
DESCASC
Temp. media en grados centígrados
DESCASC
Racha de viento máxima en m/sg (hora)
DESCASC
Velocidad máxima media en intervalos de 10 minutos(hora)
DESCASC
Precipitaciones diarias en mm
DESCASC
Precipitaciones de 00:00 a 06:00 en mm
DESCASC
Precipitaciones de 06:00 a 12:00 en mm
DESCASC
Precipitaciones de 12:00 a 18:00 en mm
DESCASC
Precipitaciones de 18:00 a 24:00 en mm
DESCASC
21-08-2017 35.4 (17:20) 19.7 (08:20) 27.6 6.39 (01:30) 3.89 (01:30) 0 0 0 0 0
20-08-2017 36.6 (17:50) 18.8 (07:40) 27.7 7.5 (16:50) 3.33 (23:59) 0 0 0 0 0
19-08-2017 37.4 (17:40) 20.7 (08:10) 29.1 7.22 (16:00) 3.33 (16:00) 0 0 0 0 0
18-08-2017 37.2 (17:10) 20.3 (08:10) 28.8 11.39 (17:50) 4.17 (17:50) 0 0 0 0 0
17-08-2017 36.8 (17:40) 19.4 (00:00) 28.1 6.67 (17:40) 3.33 (20:00) 0 0 0 0 0
16-08-2017 35.5 (16:50) 17 (00:00) 26.3 6.67 (16:20) 3.33 (17:10) 0 0 0 0 0
15-08-2017 35.7 (16:50) 17.8 (00:00) 26.8 7.78 (15:50) 4.44 (18:40) 0 0 0 0 0
14-08-2017 34.5 (17:30) 17 (07:40) 25.8 6.67 (14:40) 3.61 (00:10) 0 0 0 0 0
13-08-2017 34.2 (18:10) 16.8 (00:00) 25.5 7.78 (11:50) 3.61 (23:59) 0 0 0 0 0
12-08-2017 34.3 (18:00) 16.2 (00:00) 25.3 6.67 (12:30) 3.06 (13:00) 0 0 0 0 0
11-08-2017 34.1 (17:40) 15.6 (00:00) 24.8 6.67 (13:30) 3.33 (20:10) 0 0 0 0 0
10-08-2017 31.6 (17:30) 16.8 (00:00) 24.2 7.5 (12:40) 3.61 (14:20) 0 0 0 0 0
09-08-2017 31.7 (17:30) 13.9 (00:00) 22.8 7.78 (20:10) 4.17 (18:50) 0 0 0 0 0
08-08-2017 31.9 (17:00) 16.2 (00:00) 24.1 7.5 (18:30) 4.44 (18:30) 0 0 0 0 0
07-08-2017 37.4 (16:50) 22.9 (00:00) 30.2 9.17 (18:30) 5.28 (18:30) 0 0 0 0 0
06-08-2017 37.8 (16:20) 18.6 (00:00) 28.2 7.5 (15:20) 3.89 (18:40) 0 0 0 0 0
05-08-2017 38.9 (16:10) 23.3 (00:00) 31.1 9.44 (17:00) 5 (17:30) 0 0 0 0 0
04-08-2017 39.7 (17:30) 23.3 (00:00) 31.5 7.78 (01:50) 3.33 (17:10) 0 0 0 0 0
03-08-2017 -- (--) -- (--) -- -- (--) -- (--) -- -- -- -- --
02-08-2017 -- (--) -- (--) -- -- (--) -- (--) -- -- -- -- --
01-08-2017 -- (--) -- (--) -- -- (--) -- (--) -- -- -- -- --
31-07-2017 -- (--) -- (--) -- -- (--) -- (--) -- -- -- -- --
30-07-2017 -- (--) -- (--) -- -- (--) -- (--) -- -- -- -- --
29-07-2017 -- (--) -- (--) -- -- (--) -- (--) -- -- -- -- --
28-07-2017 -- (--) -- (--) -- -- (--) -- (--) -- -- -- -- --
27-07-2017 -- (--) -- (--) -- -- (--) -- (--) -- -- -- -- --
26-07-2017 -- (--) -- (--) -- -- (--) -- (--) -- 0 0 -- --
25-07-2017 36.2 (19:00) 18.7 (00:00) 27.5 6.67 (18:40) 3.61 (20:10) 0 0 0 0 0
24-07-2017 35.1 (17:00) 20.6 (00:00) 27.8 7.78 (00:20) 4.44 (18:20) 0 0 0 0 0
23-07-2017 35.2 (17:30) 17.2 (00:00) 26.2 7.22 (19:10) 4.17 (20:40) 0 0 0 0 0

Gráficas

Temp. máximas Temp. mínimas Temp. medias Precipitaciones Rachas de viento máximas Velocidades máximas media en intervalos de 10 minutos

Datos horarios

Fecha y hora oficial Temperatura (ºC) Velocidad del viento (km/h) Dirección del viento Racha (km/h) Dirección de racha Precipitación (mm) Presión (hPa) Tendencia (hPa) Humedad (%)
2017-08-21 23:00:00 26.6 12 Oeste 22 Sudoeste 0 -- -- 52
2017-08-21 22:00:00 27.8 13 Oeste 22 Oeste 0 -- -- 49
2017-08-21 21:00:00 30.1 10 Sudoeste 22 Oeste 0 -- -- 44
2017-08-21 20:00:00 32.5 6 Sur 17 Sudoeste 0 -- -- 34
2017-08-21 19:00:00 34.6 6 Sur 18 Sudoeste 0 -- -- 33
2017-08-21 18:00:00 35.3 3 Sudeste 15 Sudeste 0 -- -- 34
2017-08-21 17:00:00 35.3 4 Sur 18 Sudoeste 0 -- -- 36
2017-08-21 16:00:00 34.6 6 Noroeste 22 Sudeste 0 -- -- 35
2017-08-21 15:00:00 34.3 5 Oeste 19 Sudeste 0 -- -- 43
2017-08-21 14:00:00 33.4 5 Este 19 Este 0 -- -- 44
2017-08-21 13:00:00 32.1 6 Sudeste 18 Sudeste 0 -- -- 47
2017-08-21 12:00:00 29.8 4 Sudeste 12 Este 0 -- -- 58
2017-08-21 11:00:00 26.4 3 Nordeste 12 Este 0 -- -- 66
2017-08-21 10:00:00 22.9 4 Este 9 Este 0 -- -- 73
2017-08-21 09:00:00 20.5 0 Calma -- -- 0 -- -- 77
2017-08-21 08:00:00 19.8 0 Calma 3 Noroeste 0 -- -- 75
2017-08-21 07:00:00 20.9 0 Calma 3 Este 0 -- -- 72
2017-08-21 06:00:00 22 2 Nordeste 7 Noroeste 0 -- -- 68
2017-08-21 05:00:00 22.9 3 Noroeste 10 Oeste 0 -- -- 67
2017-08-21 04:00:00 23.2 0 Calma 5 Norte 0 -- -- 66
2017-08-21 03:00:00 24.6 0 Calma 19 Sudoeste 0 -- -- 62
2017-08-21 02:00:00 25.8 14 Oeste 23 Oeste 0 -- -- 57
2017-08-21 01:00:00 26.5 10 Oeste 23 Oeste 0 -- -- 54
2017-08-21 00:00:00 27 12 Oeste 21 Oeste 0 -- -- 53
2017-08-20 23:00:00 27.7 10 Oeste 19 Oeste 0 -- -- 52
2017-08-20 22:00:00 29.2 11 Oeste 19 Oeste 0 -- -- 48
2017-08-20 21:00:00 31.2 5 Sur 14 Sur 0 -- -- 36
2017-08-20 20:00:00 33.4 6 Sudeste 16 Este 0 -- -- 30
2017-08-20 19:00:00 35.6 6 Sudeste 17 Sudeste 0 -- -- 29
2017-08-20 18:00:00 36.6 10 Sudeste 24 Sudeste 0 -- -- 30
2017-08-20 17:00:00 36.4 7 Sudeste 27 Sudeste 0 -- -- 29
2017-08-20 16:00:00 36 7 Sudeste 24 Este 0 -- -- 32
2017-08-20 15:00:00 36 9 Sudeste 21 Este 0 -- -- 31
2017-08-20 14:00:00 35.4 9 Sudeste 21 Sudeste 0 -- -- 32
2017-08-20 13:00:00 34.7 5 Sudeste 15 Sudeste 0 -- -- 37
2017-08-20 12:00:00 32.9 4 Sudeste 13 Sudeste 0 -- -- 40
2017-08-20 11:00:00 29.2 4 Sudeste 8 Este 0 -- -- 43
2017-08-20 10:00:00 23.2 0 Calma 4 Sudeste 0 -- -- 63
2017-08-20 09:00:00 19.9 0 Calma 3 Noroeste 0 -- -- 70
2017-08-20 08:00:00 18.9 0 Calma 2 Sudoeste 0 -- -- 64
2017-08-20 07:00:00 19.3 0 Calma 3 Noroeste 0 -- -- 61
2017-08-20 06:00:00 20.1 2 Noroeste 6 Noroeste 0 -- -- 52
2017-08-20 05:00:00 21.4 2 Noroeste 4 Noroeste 0 -- -- 43
2017-08-20 04:00:00 22.5 0 Calma 5 Noroeste 0 -- -- 41
2017-08-20 03:00:00 23.3 2 Noroeste 6 Noroeste 0 -- -- 39
2017-08-20 02:00:00 24 3 Noroeste 7 Noroeste 0 -- -- 37
2017-08-20 01:00:00 24.4 0 Calma 4 Noroeste 0 -- -- 37
2017-08-20 00:00:00 26 0 Calma 6 Noroeste 0 -- -- 36
2017-08-19 23:00:00 27.7 4 Noroeste 10 Noroeste 0 -- -- 40
2017-08-19 22:00:00 30.1 8 Oeste 18 Sudoeste 0 -- -- 35
2017-08-19 21:00:00 32.1 10 Sudoeste 20 Sudoeste 0 -- -- 32
2017-08-19 20:00:00 34.3 6 Sudoeste 19 Sur 0 -- -- 28
2017-08-19 19:00:00 36.2 3 Sudoeste 21 Sur 0 -- -- 28
2017-08-19 18:00:00 37.2 6 Sur 19 Noroeste 0 -- -- 26
2017-08-19 17:00:00 37.2 6 Sur 25 Oeste 0 -- -- 26
2017-08-19 16:00:00 36.9 12 Sudoeste 26 Sudoeste 0 -- -- 24
2017-08-19 15:00:00 36.6 6 Sur 22 Oeste 0 -- -- 25
2017-08-19 14:00:00 36.2 8 Sur 20 Sudoeste 0 -- -- 29
2017-08-19 13:00:00 35.4 5 Sur 19 Sudoeste 0 -- -- 32
2017-08-19 12:00:00 33.9 4 Nordeste 14 Sudoeste 0 -- -- 30
2017-08-19 11:00:00 30 4 Sudeste 9 Sudeste 0 -- -- 43
2017-08-19 10:00:00 24.1 0 Calma 3 Sudeste 0 -- -- 54
2017-08-19 09:00:00 21.1 0 Calma 4 Noroeste 0 -- -- 64
2017-08-19 08:00:00 20.8 0 Calma 4 Noroeste 0 -- -- 50
2017-08-19 07:00:00 21.5 3 Noroeste 5 Noroeste 0 -- -- 49
2017-08-19 06:00:00 23 0 Calma 11 Norte 0 -- -- 46
2017-08-19 05:00:00 23.5 7 Noroeste 11 Noroeste 0 -- -- 43
2017-08-19 04:00:00 23.5 4 Noroeste 10 Noroeste 0 -- -- 45
2017-08-19 03:00:00 23.5 2 Noroeste 9 Oeste 0 -- -- 46
2017-08-19 02:00:00 25 5 Noroeste 17 Oeste 0 -- -- 42
2017-08-19 01:00:00 26 10 Noroeste 19 Oeste 0 -- -- 39
2017-08-19 00:00:00 27.1 5 Noroeste 15 Norte 0 -- -- 32
2017-08-18 23:00:00 28 6 Noroeste 16 Noroeste 0 -- -- 31
2017-08-18 22:00:00 29.3 6 Noroeste 10 Noroeste 0 -- -- 29
2017-08-18 21:00:00 31.8 8 Noroeste 21 Noroeste 0 -- -- 27
2017-08-18 20:00:00 34.2 13 Norte 23 Noroeste 0 -- -- 25
2017-08-18 19:00:00 36.3 12 Noroeste 23 Noroeste 0 -- -- 24
2017-08-18 18:00:00 37 9 Oeste 41 Oeste 0 -- -- 26
2017-08-18 17:00:00 37 10 Noroeste 24 Sur 0 -- -- 25
2017-08-18 16:00:00 36.8 6 Sudoeste 22 Sudoeste 0 -- -- 27
2017-08-18 15:00:00 36 7 Sudoeste 19 Oeste 0 -- -- 27
2017-08-18 14:00:00 34.5 8 Noroeste 18 Sudoeste 0 -- -- 31
2017-08-18 13:00:00 34.7 6 Sudoeste 15 Sudoeste 0 -- -- 36
2017-08-18 12:00:00 33.9 5 Sur 14 Sudoeste 0 -- -- 34
2017-08-18 11:00:00 30.2 4 Este 7 Este 0 -- -- 40
2017-08-18 10:00:00 24.2 0 Calma 5 Sudeste 0 -- -- 52
2017-08-18 09:00:00 21.4 0 Calma 2 Este 0 -- -- 59
2017-08-18 08:00:00 20.4 0 Calma 3 Noroeste 0 -- -- 56
2017-08-18 07:00:00 20.8 0 Calma 2 Sudoeste 0 -- -- 54
2017-08-18 06:00:00 21.2 0 Calma 3 Noroeste 0 -- -- 51
2017-08-18 05:00:00 21.8 0 Calma 5 Oeste 0 -- -- 51
2017-08-18 04:00:00 22.5 3 Noroeste 6 Sudoeste 0 -- -- 48
2017-08-18 03:00:00 23.8 4 Noroeste 10 Noroeste 0 -- -- 44
2017-08-18 02:00:00 25.2 4 Noroeste 18 Oeste 0 -- -- 39
2017-08-18 01:00:00 26.6 10 Oeste 15 Oeste 0 -- -- 39
2017-08-18 00:00:00 27.2 7 Oeste 13 Oeste 0 -- -- 40
2017-08-17 23:00:00 28 10 Sudoeste 16 Oeste 0 -- -- 39
2017-08-17 22:00:00 29.4 10 Oeste 18 Oeste 0 -- -- 36
2017-08-17 21:00:00 31.4 10 Sudoeste 22 Sudoeste 0 -- -- 31
2017-08-17 20:00:00 33.6 12 Sudoeste 23 Noroeste 0 -- -- 27
2017-08-17 19:00:00 35.8 6 Sudoeste 21 Sur 0 -- -- 23
2017-08-17 18:00:00 36.6 8 Sur 24 Sudoeste 0 -- -- 22
2017-08-17 17:00:00 36.6 9 Sudoeste 20 Noroeste 0 -- -- 23
2017-08-17 16:00:00 36.4 8 Sur 20 Sudoeste 0 -- -- 25
2017-08-17 15:00:00 36 7 Noroeste 18 Sudoeste 0 -- -- 26
2017-08-17 14:00:00 35.3 5 Sur 20 Sur 0 -- -- 26
2017-08-17 13:00:00 34 5 Nordeste 14 Oeste 0 -- -- 26
2017-08-17 12:00:00 31.3 3 Sudeste 10 Este 0 -- -- 35
2017-08-17 11:00:00 31 4 Este 8 Este 0 -- -- 31
2017-08-17 10:00:00 24.5 0 Calma 2 Sudeste 0 -- -- 47
2017-08-17 09:00:00 20.9 0 Calma 3 Noroeste 0 -- -- 52
2017-08-17 08:00:00 19.4 2 Noroeste 6 Noroeste 0 -- -- 43
2017-08-17 07:00:00 19.8 0 Calma 4 Noroeste 0 -- -- 42
2017-08-17 06:00:00 20.4 2 Noroeste 8 Noroeste 0 -- -- 41
2017-08-17 05:00:00 21.5 5 Noroeste 13 Norte 0 -- -- 41
2017-08-17 04:00:00 22.2 6 Noroeste 12 Norte 0 -- -- 39
2017-08-17 03:00:00 22.8 4 Noroeste 11 Noroeste 0 -- -- 36
2017-08-17 02:00:00 23.2 5 Noroeste 12 Noroeste 0 -- -- 36
2017-08-17 01:00:00 23.9 6 Noroeste 14 Norte 0 -- -- 31
2017-08-17 00:00:00 25.2 5 Noroeste 15 Nordeste 0 -- -- 26
2017-08-16 23:00:00 26.4 6 Noroeste 17 Noroeste 0 -- -- 26
2017-08-16 22:00:00 27.4 7 Noroeste 14 Oeste 0 -- -- 25
2017-08-16 21:00:00 30.1 7 Norte 19 Norte 0 -- -- 23
2017-08-16 20:00:00 32.6 9 Norte 21 Noroeste 0 -- -- 23
2017-08-16 19:00:00 34.5 11 Norte 24 Noroeste 0 -- -- 21
2017-08-16 18:00:00 35.2 10 Norte 23 Norte 0 -- -- 19
2017-08-16 17:00:00 35.5 10 Norte 24 Noroeste 0 -- -- 19
2017-08-16 16:00:00 35.1 10 Noroeste 22 Oeste 0 -- -- 18
2017-08-16 15:00:00 34.6 8 Oeste 21 Noroeste 0 -- -- 18
2017-08-16 14:00:00 33.4 9 Noroeste 19 Noroeste 0 -- -- 21
2017-08-16 13:00:00 32.5 6 Noroeste 15 Sudoeste 0 -- -- 28
2017-08-16 12:00:00 31.6 3 Noroeste 6 Sudeste 0 -- -- 22
2017-08-16 11:00:00 27.6 3 Sur 9 Sudeste 0 -- -- 30
2017-08-16 10:00:00 21.4 2 Sudeste 4 Este 0 -- -- 43
2017-08-16 09:00:00 17.7 0 Calma 5 Noroeste 0 -- -- 52
2017-08-16 08:00:00 17.3 3 Noroeste 9 Oeste 0 -- -- 46
2017-08-16 07:00:00 17.7 2 Oeste 6 Noroeste 0 -- -- 47
2017-08-16 06:00:00 18.8 0 Calma 6 Noroeste 0 -- -- 46
2017-08-16 05:00:00 20 4 Noroeste 11 Noroeste 0 -- -- 42
2017-08-16 04:00:00 20.6 6 Oeste 13 Oeste 0 -- -- 42
2017-08-16 03:00:00 21.2 5 Noroeste 15 Oeste 0 -- -- 43
2017-08-16 02:00:00 22.3 2 Noroeste 15 Noroeste 0 -- -- 40
2017-08-16 01:00:00 24 8 Noroeste 20 Noroeste 0 -- -- 35
2017-08-16 00:00:00 25.5 12 Noroeste 27 Noroeste 0 -- -- 32
2017-08-15 23:00:00 26.5 14 Noroeste 24 Noroeste 0 -- -- 31
2017-08-15 22:00:00 27.7 10 Noroeste 23 Noroeste 0 -- -- 28
2017-08-15 21:00:00 29.9 10 Noroeste 24 Noroeste 0 -- -- 25
2017-08-15 20:00:00 32.4 13 Noroeste 26 Noroeste 0 -- -- 23
2017-08-15 19:00:00 34.4 15 Noroeste 27 Noroeste 0 -- -- 22
2017-08-15 18:00:00 35.4 12 Noroeste 26 Noroeste 0 -- -- 20
2017-08-15 17:00:00 35.6 12 Noroeste 26 Oeste 0 -- -- 21
2017-08-15 16:00:00 35.3 15 Noroeste 28 Sudoeste 0 -- -- 24
2017-08-15 15:00:00 35.3 7 Sudoeste 22 Oeste 0 -- -- 27
2017-08-15 14:00:00 34.4 5 Sudoeste 17 Sudoeste 0 -- -- 29
2017-08-15 13:00:00 33.3 7 Sudoeste 16 Sur 0 -- -- 29
2017-08-15 12:00:00 30.9 4 Sur 13 Sudeste 0 -- -- 40
2017-08-15 11:00:00 28.5 4 Sur 11 Sur 0 -- -- 47
2017-08-15 10:00:00 23 2 Sudeste 6 Norte 0 -- -- 61
2017-08-15 09:00:00 19.2 3 Noroeste 6 Noroeste 0 -- -- 66
2017-08-15 08:00:00 17.8 0 Calma 2 Oeste 0 -- -- 62
2017-08-15 07:00:00 18.1 0 Calma 2 Sudoeste 0 -- -- 61
2017-08-15 06:00:00 18.5 0 Calma 2 Sur 0 -- -- 60
2017-08-15 05:00:00 19.5 2 Oeste 4 Noroeste 0 -- -- 57
2017-08-15 04:00:00 20.9 0 Calma 7 Oeste 0 -- -- 54
2017-08-15 03:00:00 22.5 4 Noroeste 13 Oeste 0 -- -- 50
2017-08-15 02:00:00 23.3 9 Oeste 22 Oeste 0 -- -- 47
2017-08-15 01:00:00 24.4 14 Noroeste 27 Oeste 0 -- -- 43
2017-08-15 00:00:00 25.2 12 Oeste 21 Oeste 0 -- -- 38
2017-08-14 23:00:00 26 7 Oeste 12 Oeste 0 -- -- 37
2017-08-14 22:00:00 27.6 6 Oeste 14 Oeste 0 -- -- 35
2017-08-14 21:00:00 29.7 9 Oeste 18 Oeste 0 -- -- 33
2017-08-14 20:00:00 31.8 7 Sur 14 Sudoeste 0 -- -- 31
2017-08-14 19:00:00 33.8 4 Sudoeste 19 Sudoeste 0 -- -- 29
2017-08-14 18:00:00 34.4 8 Este 17 Noroeste 0 -- -- 32
2017-08-14 17:00:00 34.1 4 Este 18 Sur 0 -- -- 28
2017-08-14 16:00:00 33.5 7 Este 20 Sur 0 -- -- 32
2017-08-14 15:00:00 32.9 5 Sudoeste 24 Sudoeste 0 -- -- 35
2017-08-14 14:00:00 31.6 8 Este 20 Este 0 -- -- 38
2017-08-14 13:00:00 29.4 6 Sudeste 19 Sudeste 0 -- -- 33
2017-08-14 12:00:00 26.9 8 Sudeste 21 Este 0 -- -- 48
2017-08-14 11:00:00 25.1 11 Este 21 Este 0 -- -- 53
2017-08-14 10:00:00 21.9 6 Este 12 Este 0 -- -- 62
2017-08-14 09:00:00 18.6 0 Calma 3 Sudeste 0 -- -- 76
2017-08-14 08:00:00 17.1 0 Calma 2 Sudoeste 0 -- -- 76
2017-08-14 07:00:00 17.2 0 Calma 4 Sudoeste 0 -- -- 73
2017-08-14 06:00:00 17.9 0 Calma 3 Norte 0 -- -- 69
2017-08-14 05:00:00 18.6 3 Oeste 5 Oeste 0 -- -- 62
2017-08-14 04:00:00 19.9 0 Calma 4 Norte 0 -- -- 58
2017-08-14 03:00:00 21.3 2 Sudeste 8 Sudoeste 0 -- -- 55
2017-08-14 02:00:00 22.8 2 Noroeste 18 Oeste 0 -- -- 51
2017-08-14 01:00:00 24.1 9 Oeste 21 Oeste 0 -- -- 48
2017-08-14 00:00:00 25.2 13 Oeste 22 Oeste 0 -- -- 44
2017-08-13 23:00:00 25.9 7 Oeste 16 Oeste 0 -- -- 41
2017-08-13 22:00:00 26.3 8 Oeste 15 Oeste 0 -- -- 38
2017-08-13 21:00:00 28.5 3 Sur 14 Sur 0 -- -- 33
2017-08-13 20:00:00 31.1 7 Sudeste 17 Sudeste 0 -- -- 28
2017-08-13 19:00:00 33.6 5 Sudeste 20 Este 0 -- -- 26
2017-08-13 18:00:00 34.1 3 Noroeste 21 Sudeste 0 -- -- 27
2017-08-13 17:00:00 34 8 Sudeste 23 Sudeste 0 -- -- 30
2017-08-13 16:00:00 33.6 6 Nordeste 23 Este 0 -- -- 28
2017-08-13 15:00:00 33 9 Sudeste 23 Sudeste 0 -- -- 27
2017-08-13 14:00:00 32 9 Sudeste 24 Sudeste 0 -- -- 29
2017-08-13 13:00:00 30.8 11 Sudeste 27 Sudeste 0 -- -- 33
2017-08-13 12:00:00 29.3 8 Sudeste 28 Este 0 -- -- 34
2017-08-13 11:00:00 26.3 8 Este 17 Este 0 -- -- 45
2017-08-13 10:00:00 21.2 7 Este 13 Este 0 -- -- 63
2017-08-13 09:00:00 18.2 0 Calma 2 Noroeste 0 -- -- 71
2017-08-13 08:00:00 16.9 0 Calma 4 Sudoeste 0 -- -- 66
2017-08-13 07:00:00 17 0 Calma 2 Noroeste 0 -- -- 63
2017-08-13 06:00:00 17.6 0 Calma 4 Noroeste 0 -- -- 62
2017-08-13 05:00:00 18.7 0 Calma 5 Noroeste 0 -- -- 57
2017-08-13 04:00:00 20.6 3 Noroeste 7 Nordeste 0 -- -- 47
2017-08-13 03:00:00 22.2 0 Calma 12 Oeste 0 -- -- 47
2017-08-13 02:00:00 23.3 4 Oeste 15 Oeste 0 -- -- 46
2017-08-13 01:00:00 23.5 7 Oeste 15 Oeste 0 -- -- 48
2017-08-13 00:00:00 24.8 9 Oeste 18 Oeste 0 -- -- 44
2017-08-12 23:00:00 25.7 8 Oeste 14 Oeste 0 -- -- 43
2017-08-12 22:00:00 26.5 7 Oeste 12 Oeste 0 -- -- 38
2017-08-12 21:00:00 28.3 4 Sur 15 Sudeste 0 -- -- 33
2017-08-12 20:00:00 31.1 7 Sur 19 Sur 0 -- -- 27
2017-08-12 19:00:00 33.6 6 Sudeste 18 Sudeste 0 -- -- 26
2017-08-12 18:00:00 34.3 6 Este 21 Sudeste 0 -- -- 28
2017-08-12 17:00:00 34.1 8 Sudeste 21 Este 0 -- -- 29
2017-08-12 16:00:00 33.4 7 Oeste 22 Este 0 -- -- 27
2017-08-12 15:00:00 32.8 5 Sudeste 22 Este 0 -- -- 33
2017-08-12 14:00:00 31.9 6 Sudeste 21 Este 0 -- -- 34
2017-08-12 13:00:00 30.6 11 Sudeste 24 Este 0 -- -- 33
2017-08-12 12:00:00 29.2 6 Sudeste 22 Sudeste 0 -- -- 35
2017-08-12 11:00:00 26.2 8 Este 14 Este 0 -- -- 48
2017-08-12 10:00:00 20.6 5 Este 9 Sudeste 0 -- -- 65
2017-08-12 09:00:00 18.1 0 Calma 6 Sudeste 0 -- -- 64
2017-08-12 08:00:00 16.2 2 Sur 4 Sur 0 -- -- 53
2017-08-12 07:00:00 17.2 0 Calma 7 Sudeste 0 -- -- 36
2017-08-12 06:00:00 17.9 0 Calma 3 Este 0 -- -- 35
2017-08-12 05:00:00 18.5 0 Calma 5 Oeste 0 -- -- 34
2017-08-12 04:00:00 19.1 3 Noroeste 6 Noroeste 0 -- -- 32
2017-08-12 03:00:00 19.9 0 Calma 6 Noroeste 0 -- -- 33
2017-08-12 02:00:00 20 3 Noroeste 6 Noroeste 0 -- -- 30
2017-08-12 01:00:00 21.4 0 Calma 10 Este 0 -- -- 29
2017-08-12 00:00:00 24.1 2 Norte 11 Norte 0 -- -- 24
2017-08-11 23:00:00 25.6 5 Nordeste 15 Noroeste 0 -- -- 22
2017-08-11 22:00:00 26.9 7 Norte 19 Nordeste 0 -- -- 21
2017-08-11 21:00:00 29.1 7 Norte 22 Nordeste 0 -- -- 20
2017-08-11 20:00:00 31.5 9 Nordeste 21 Noroeste 0 -- -- 17
2017-08-11 19:00:00 33.6 8 Norte 19 Noroeste 0 -- -- 18
2017-08-11 18:00:00 34 10 Norte 21 Este 0 -- -- 19
2017-08-11 17:00:00 33.7 8 Norte 23 Nordeste 0 -- -- 26
2017-08-11 16:00:00 32.9 6 Este 21 Nordeste 0 -- -- 25
2017-08-11 15:00:00 31.8 5 Noroeste 21 Este 0 -- -- 28
2017-08-11 14:00:00 29.5 6 Norte 24 Este 0 -- -- 33
2017-08-11 13:00:00 28 7 Sudeste 21 Sudeste 0 -- -- 47
2017-08-11 12:00:00 28.7 7 Este 21 Este 0 -- -- 43
2017-08-11 11:00:00 26 10 Sudeste 19 Sudeste 0 -- -- 51
2017-08-11 10:00:00 21.5 8 Este 17 Este 0 -- -- 68
2017-08-11 09:00:00 17.7 0 Calma 4 Nordeste 0 -- -- 74
2017-08-11 08:00:00 15.6 0 Calma 2 Noroeste 0 -- -- 68
2017-08-11 07:00:00 16.6 0 Calma 3 Sudeste 0 -- -- 52
2017-08-11 06:00:00 17.4 2 Sudeste 5 Sur 0 -- -- 29
2017-08-11 05:00:00 18 0 Calma 4 Este 0 -- -- 28
2017-08-11 04:00:00 19.5 0 Calma 5 Sudeste 0 -- -- 25
2017-08-11 03:00:00 21.7 2 Sudeste 14 Nordeste 0 -- -- 22
2017-08-11 02:00:00 22.3 6 Nordeste 19 Norte 0 -- -- 21
2017-08-11 01:00:00 21.9 2 Noroeste 12 Norte 0 -- -- 24
2017-08-11 00:00:00 22.8 5 Norte 15 Norte 0 -- -- 24
2017-08-10 23:00:00 23.2 8 Norte 22 Norte 0 -- -- 25
2017-08-10 22:00:00 24.3 4 Noroeste 10 Norte 0 -- -- 24
2017-08-10 21:00:00 27.2 6 Norte 18 Nordeste 0 -- -- 21
2017-08-10 20:00:00 28.8 10 Nordeste 24 Este 0 -- -- 19
2017-08-10 19:00:00 30.9 6 Nordeste 23 Este 0 -- -- 19
2017-08-10 18:00:00 31.6 9 Sudeste 21 Este 0 -- -- 24
2017-08-10 17:00:00 31.5 8 Este 24 Nordeste 0 -- -- 24
2017-08-10 16:00:00 30.8 6 Este 23 Norte 0 -- -- 28
2017-08-10 15:00:00 29.9 12 Nordeste 26 Nordeste 0 -- -- 26
2017-08-10 14:00:00 28.8 10 Este 27 Este 0 -- -- 32
2017-08-10 13:00:00 27.8 9 Este 27 Este 0 -- -- 30
2017-08-10 12:00:00 26.1 9 Este 26 Nordeste 0 -- -- 38
2017-08-10 11:00:00 24.1 10 Este 23 Este 0 -- -- 44
2017-08-10 10:00:00 20.7 6 Nordeste 23 Nordeste 0 -- -- 39
2017-08-10 09:00:00 18 6 Este 20 Este 0 -- -- 44
2017-08-10 08:00:00 17 7 Este 21 Nordeste 0 -- -- 44
2017-08-10 07:00:00 17.5 4 Este 17 Nordeste 0 -- -- 44
2017-08-10 06:00:00 17.8 4 Nordeste 19 Norte 0 -- -- 38
2017-08-10 05:00:00 18.2 6 Norte 17 Nordeste 0 -- -- 33
2017-08-10 04:00:00 18.5 4 Norte 15 Sudoeste 0 -- -- 33
2017-08-10 03:00:00 19.7 3 Noroeste 22 Norte 0 -- -- 33
2017-08-10 02:00:00 20.8 10 Norte 27 Noroeste 0 -- -- 30
2017-08-10 01:00:00 21.6 9 Norte 21 Norte 0 -- -- 31
2017-08-10 00:00:00 21.9 10 Noroeste 21 Noroeste 0 -- -- 32
2017-08-09 23:00:00 22.4 9 Noroeste 21 Oeste 0 -- -- 30
2017-08-09 22:00:00 23.4 6 Noroeste 14 Noroeste 0 -- -- 27
2017-08-09 21:00:00 25.9 10 Noroeste 28 Noroeste 0 -- -- 27
2017-08-09 20:00:00 28.1 14 Norte 26 Norte 0 -- -- 26
2017-08-09 19:00:00 30.4 12 Norte 27 Noroeste 0 -- -- 26
2017-08-09 18:00:00 31.5 10 Norte 27 Noroeste 0 -- -- 24
2017-08-09 17:00:00 31.4 12 Noroeste 26 Oeste 0 -- -- 23
2017-08-09 16:00:00 31 6 Noroeste 23 Oeste 0 -- -- 26
2017-08-09 15:00:00 30.4 6 Noroeste 21 Oeste 0 -- -- 28
2017-08-09 14:00:00 29.7 3 Sudeste 22 Sudoeste 0 -- -- 35
2017-08-09 13:00:00 28.8 7 Sur 15 Sudoeste 0 -- -- 36
2017-08-09 12:00:00 26.7 5 Sudeste 14 Sudeste 0 -- -- 43
2017-08-09 11:00:00 23.7 3 Norte 12 Oeste 0 -- -- 46
2017-08-09 10:00:00 18.5 5 Noroeste 14 Sudoeste 0 -- -- 62
2017-08-09 09:00:00 16.4 6 Oeste 10 Oeste 0 -- -- 59
2017-08-09 08:00:00 14.1 4 Oeste 9 Oeste 0 -- -- 65
2017-08-09 07:00:00 14.7 3 Noroeste 7 Oeste 0 -- -- 63
2017-08-09 06:00:00 15.6 3 Noroeste 13 Noroeste 0 -- -- 60
2017-08-09 05:00:00 16.4 6 Noroeste 12 Oeste 0 -- -- 58
2017-08-09 04:00:00 16.7 5 Noroeste 16 Noroeste 0 -- -- 56
2017-08-09 03:00:00 17.5 7 Noroeste 18 Oeste 0 -- -- 54
2017-08-09 02:00:00 18.8 10 Noroeste 26 Oeste 0 -- -- 51
2017-08-09 01:00:00 19.9 10 Noroeste 23 Oeste 0 -- -- 44
2017-08-09 00:00:00 21.3 7 Noroeste 14 Noroeste 0 -- -- 33
2017-08-08 23:00:00 21.8 8 Noroeste 14 Noroeste 0 -- -- 29
2017-08-08 22:00:00 23.3 5 Noroeste 12 Noroeste 0 -- -- 23
2017-08-08 21:00:00 26.4 9 Noroeste 21 Noroeste 0 -- -- 20
2017-08-08 20:00:00 28.8 12 Norte 25 Noroeste 0 -- -- 18
2017-08-08 19:00:00 30.8 10 Norte 27 Noroeste 0 -- -- 18
2017-08-08 18:00:00 31.9 9 Norte 25 Noroeste 0 -- -- 19
2017-08-08 17:00:00 31.9 12 Noroeste 26 Oeste 0 -- -- 20
2017-08-08 16:00:00 31.4 10 Noroeste 27 Noroeste 0 -- -- 21
2017-08-08 15:00:00 30.5 10 Noroeste 21 Norte 0 -- -- 24
2017-08-08 14:00:00 29.4 6 Norte 25 Noroeste 0 -- -- 26
2017-08-08 13:00:00 27.4 9 Norte 19 Noroeste 0 -- -- 31
2017-08-08 12:00:00 27 9 Nordeste 20 Norte 0 -- -- 31
2017-08-08 11:00:00 24.9 8 Norte 17 Nordeste 0 -- -- 40
2017-08-08 10:00:00 20 8 Nordeste 15 Norte 0 -- -- 52
2017-08-08 09:00:00 17.6 8 Nordeste 12 Nordeste 0 -- -- 57
2017-08-08 08:00:00 16.4 6 Noroeste 15 Noroeste 0 -- -- 50
2017-08-08 07:00:00 16.6 7 Noroeste 15 Noroeste 0 -- -- 45
2017-08-08 06:00:00 16.3 5 Noroeste 13 Noroeste 0 -- -- 46
2017-08-08 05:00:00 17.3 8 Noroeste 13 Noroeste 0 -- -- 43
2017-08-08 04:00:00 18.6 7 Noroeste 18 Oeste 0 -- -- 39
2017-08-08 03:00:00 -- -- -- -- -- -- -- -- --
2017-08-08 02:00:00 -- -- -- -- -- -- -- -- --
2017-08-08 01:00:00 -- -- -- -- -- -- -- -- --
2017-08-08 00:00:00 -- -- -- -- -- -- -- -- --
2017-08-07 23:00:00 -- -- -- -- -- -- -- -- --
2017-08-07 22:00:00 -- -- -- -- -- -- -- -- --
2017-08-07 21:00:00 -- -- -- -- -- -- -- -- --
2017-08-07 20:00:00 -- -- -- -- -- -- -- -- --
2017-08-07 19:00:00 -- -- -- -- -- -- -- -- --
2017-08-07 18:00:00 -- -- -- -- -- -- -- -- --
2017-08-07 17:00:00 -- -- -- -- -- -- -- -- --
2017-08-07 16:00:00 -- -- -- -- -- -- -- -- --
2017-08-07 15:00:00 -- -- -- -- -- -- -- -- --
2017-08-07 14:00:00 -- -- -- -- -- -- -- -- --
2017-08-07 13:00:00 -- -- -- -- -- -- -- -- --
2017-08-07 12:00:00 -- -- -- -- -- -- -- -- --
2017-08-07 11:00:00 -- -- -- -- -- -- -- -- --
2017-08-07 10:00:00 -- -- -- -- -- -- -- -- --
2017-08-07 09:00:00 -- -- -- -- -- -- -- -- --
2017-08-07 08:00:00 -- -- -- -- -- -- -- -- --
2017-08-07 07:00:00 -- -- -- -- -- -- -- -- --
2017-08-07 06:00:00 -- -- -- -- -- -- -- -- --
2017-08-07 05:00:00 -- -- -- -- -- -- -- -- --
2017-08-07 04:00:00 -- -- -- -- -- -- -- -- --
2017-08-07 03:00:00 -- -- -- -- -- -- -- -- --
2017-08-07 02:00:00 -- -- -- -- -- -- -- -- --
2017-08-07 01:00:00 -- -- -- -- -- -- -- -- --
2017-08-07 00:00:00 -- -- -- -- -- -- -- -- --
2017-08-06 23:00:00 -- -- -- -- -- -- -- -- --
2017-08-06 22:00:00 -- -- -- -- -- -- -- -- --
2017-08-06 21:00:00 -- -- -- -- -- -- -- -- --
2017-08-06 20:00:00 -- -- -- -- -- -- -- -- --
2017-08-06 19:00:00 -- -- -- -- -- -- -- -- --
2017-08-06 18:00:00 -- -- -- -- -- -- -- -- --
2017-08-06 17:00:00 -- -- -- -- -- -- -- -- --
2017-08-06 16:00:00 -- -- -- -- -- -- -- -- --
2017-08-06 15:00:00 -- -- -- -- -- -- -- -- --
2017-08-06 14:00:00 -- -- -- -- -- -- -- -- --
2017-08-06 13:00:00 -- -- -- -- -- -- -- -- --
2017-08-06 12:00:00 -- -- -- -- -- -- -- -- --
2017-08-06 11:00:00 -- -- -- -- -- -- -- -- --
2017-08-06 10:00:00 -- -- -- -- -- -- -- -- --
2017-08-06 09:00:00 -- -- -- -- -- -- -- -- --
2017-08-06 08:00:00 -- -- -- -- -- -- -- -- --
2017-08-06 07:00:00 -- -- -- -- -- -- -- -- --
2017-08-06 06:00:00 -- -- -- -- -- -- -- -- --
2017-08-06 05:00:00 -- -- -- -- -- -- -- -- --
2017-08-06 04:00:00 -- -- -- -- -- -- -- -- --
2017-08-06 03:00:00 -- -- -- -- -- -- -- -- --
2017-08-06 02:00:00 -- -- -- -- -- -- -- -- --
2017-08-06 01:00:00 -- -- -- -- -- -- -- -- --
2017-08-06 00:00:00 -- -- -- -- -- -- -- -- --
2017-08-05 23:00:00 -- -- -- -- -- -- -- -- --
2017-08-05 22:00:00 -- -- -- -- -- -- -- -- --
2017-08-05 21:00:00 -- -- -- -- -- -- -- -- --
2017-08-05 20:00:00 -- -- -- -- -- -- -- -- --
2017-08-05 19:00:00 -- -- -- -- -- -- -- -- --
2017-08-05 18:00:00 -- -- -- -- -- -- -- -- --
2017-08-05 17:00:00 -- -- -- -- -- -- -- -- --
2017-08-05 16:00:00 -- -- -- -- -- -- -- -- --
2017-08-05 15:00:00 -- -- -- -- -- -- -- -- --
2017-08-05 14:00:00 -- -- -- -- -- -- -- -- --
2017-08-05 13:00:00 -- -- -- -- -- -- -- -- --
2017-08-05 12:00:00 -- -- -- -- -- -- -- -- --
2017-08-05 11:00:00 -- -- -- -- -- -- -- -- --
2017-08-05 10:00:00 -- -- -- -- -- -- -- -- --
2017-08-05 09:00:00 -- -- -- -- -- -- -- -- --
2017-08-05 08:00:00 -- -- -- -- -- -- -- -- --
2017-08-05 07:00:00 -- -- -- -- -- -- -- -- --
2017-08-05 06:00:00 -- -- -- -- -- -- -- -- --
2017-08-05 05:00:00 -- -- -- -- -- -- -- -- --
2017-08-05 04:00:00 -- -- -- -- -- -- -- -- --
2017-08-05 03:00:00 -- -- -- -- -- -- -- -- --
2017-08-05 02:00:00 -- -- -- -- -- -- -- -- --
2017-08-05 01:00:00 -- -- -- -- -- -- -- -- --
2017-08-05 00:00:00 -- -- -- -- -- -- -- -- --
2017-08-04 23:00:00 -- -- -- -- -- -- -- -- --
2017-08-04 22:00:00 -- -- -- -- -- -- -- -- --
2017-08-04 21:00:00 -- -- -- -- -- -- -- -- --
2017-08-04 20:00:00 -- -- -- -- -- -- -- -- --
2017-08-04 19:00:00 -- -- -- -- -- -- -- -- --
2017-08-04 18:00:00 -- -- -- -- -- -- -- -- --
2017-08-04 17:00:00 -- -- -- -- -- -- -- -- --
2017-08-04 16:00:00 -- -- -- -- -- -- -- -- --
2017-08-04 15:00:00 -- -- -- -- -- -- -- -- --
2017-08-04 14:00:00 -- -- -- -- -- -- -- -- --
2017-08-04 13:00:00 -- -- -- -- -- -- -- -- --
2017-08-04 12:00:00 -- -- -- -- -- -- -- -- --
2017-08-04 11:00:00 -- -- -- -- -- -- -- -- --
2017-08-04 10:00:00 -- -- -- -- -- -- -- -- --
2017-08-04 09:00:00 -- -- -- -- -- -- -- -- --
2017-08-04 08:00:00 -- -- -- -- -- -- -- -- --
2017-08-04 07:00:00 -- -- -- -- -- -- -- -- --
2017-08-04 06:00:00 -- -- -- -- -- -- -- -- --
2017-08-04 05:00:00 -- -- -- -- -- -- -- -- --
2017-08-04 04:00:00 -- -- -- -- -- -- -- -- --
2017-08-04 03:00:00 -- -- -- -- -- -- -- -- --
2017-08-04 02:00:00 -- -- -- -- -- -- -- -- --
2017-08-04 01:00:00 -- -- -- -- -- -- -- -- --
2017-08-04 00:00:00 -- -- -- -- -- -- -- -- --
2017-08-03 23:00:00 -- -- -- -- -- -- -- -- --
2017-08-03 22:00:00 -- -- -- -- -- -- -- -- --
2017-08-03 21:00:00 -- -- -- -- -- -- -- -- --
2017-08-03 20:00:00 -- -- -- -- -- -- -- -- --
2017-08-03 19:00:00 -- -- -- -- -- -- -- -- --
2017-08-03 18:00:00 -- -- -- -- -- -- -- -- --
2017-08-03 17:00:00 -- -- -- -- -- -- -- -- --
2017-08-03 16:00:00 -- -- -- -- -- -- -- -- --
2017-08-03 15:00:00 -- -- -- -- -- -- -- -- --
2017-08-03 14:00:00 -- -- -- -- -- -- -- -- --
2017-08-03 13:00:00 -- -- -- -- -- -- -- -- --
2017-08-03 12:00:00 -- -- -- -- -- -- -- -- --
2017-08-03 11:00:00 -- -- -- -- -- -- -- -- --
2017-08-03 10:00:00 -- -- -- -- -- -- -- -- --
2017-08-03 09:00:00 -- -- -- -- -- -- -- -- --
2017-08-03 08:00:00 -- -- -- -- -- -- -- -- --
2017-08-03 07:00:00 -- -- -- -- -- -- -- -- --
2017-08-03 06:00:00 -- -- -- -- -- -- -- -- --
2017-08-03 05:00:00 -- -- -- -- -- -- -- -- --
2017-08-03 04:00:00 -- -- -- -- -- -- -- -- --
2017-08-03 03:00:00 -- -- -- -- -- -- -- -- --
2017-08-03 02:00:00 -- -- -- -- -- -- -- -- --
2017-08-03 01:00:00 -- -- -- -- -- -- -- -- --
2017-08-03 00:00:00 -- -- -- -- -- -- -- -- --
2017-08-02 23:00:00 -- -- -- -- -- -- -- -- --
2017-08-02 22:00:00 -- -- -- -- -- -- -- -- --
2017-08-02 21:00:00 -- -- -- -- -- -- -- -- --
2017-08-02 20:00:00 -- -- -- -- -- -- -- -- --
2017-08-02 19:00:00 -- -- -- -- -- -- -- -- --
2017-08-02 18:00:00 -- -- -- -- -- -- -- -- --
2017-08-02 17:00:00 -- -- -- -- -- -- -- -- --
2017-08-02 16:00:00 -- -- -- -- -- -- -- -- --
2017-08-02 15:00:00 -- -- -- -- -- -- -- -- --
2017-08-02 14:00:00 -- -- -- -- -- -- -- -- --
2017-08-02 13:00:00 -- -- -- -- -- -- -- -- --
2017-08-02 12:00:00 -- -- -- -- -- -- -- -- --
2017-08-02 11:00:00 -- -- -- -- -- -- -- -- --
2017-08-02 10:00:00 -- -- -- -- -- -- -- -- --
2017-08-02 09:00:00 -- -- -- -- -- -- -- -- --
2017-08-02 08:00:00 -- -- -- -- -- -- -- -- --
2017-08-02 07:00:00 -- -- -- -- -- -- -- -- --
2017-08-02 06:00:00 -- -- -- -- -- -- -- -- --
2017-08-02 05:00:00 -- -- -- -- -- -- -- -- --
2017-08-02 04:00:00 -- -- -- -- -- -- -- -- --
2017-08-02 03:00:00 -- -- -- -- -- -- -- -- --
2017-08-02 02:00:00 -- -- -- -- -- -- -- -- --
2017-08-02 01:00:00 -- -- -- -- -- -- -- -- --
2017-08-02 00:00:00 -- -- -- -- -- -- -- -- --
2017-08-01 23:00:00 -- -- -- -- -- -- -- -- --
2017-08-01 22:00:00 -- -- -- -- -- -- -- -- --
2017-08-01 21:00:00 -- -- -- -- -- -- -- -- --
2017-08-01 20:00:00 -- -- -- -- -- -- -- -- --
2017-08-01 19:00:00 -- -- -- -- -- -- -- -- --
2017-08-01 18:00:00 -- -- -- -- -- -- -- -- --
2017-08-01 17:00:00 -- -- -- -- -- -- -- -- --
2017-08-01 16:00:00 -- -- -- -- -- -- -- -- --
2017-08-01 15:00:00 -- -- -- -- -- -- -- -- --
2017-08-01 14:00:00 -- -- -- -- -- -- -- -- --
2017-08-01 13:00:00 -- -- -- -- -- -- -- -- --
2017-08-01 12:00:00 -- -- -- -- -- -- -- -- --
2017-08-01 11:00:00 -- -- -- -- -- -- -- -- --
2017-08-01 10:00:00 -- -- -- -- -- -- -- -- --
2017-08-01 09:00:00 -- -- -- -- -- -- -- -- --
2017-08-01 08:00:00 -- -- -- -- -- -- -- -- --
2017-08-01 07:00:00 -- -- -- -- -- -- -- -- --
2017-08-01 06:00:00 -- -- -- -- -- -- -- -- --
2017-08-01 05:00:00 -- -- -- -- -- -- -- -- --
2017-08-01 04:00:00 -- -- -- -- -- -- -- -- --
2017-08-01 03:00:00 -- -- -- -- -- -- -- -- --
2017-08-01 02:00:00 -- -- -- -- -- -- -- -- --
2017-08-01 01:00:00 -- -- -- -- -- -- -- -- --
2017-08-01 00:00:00 -- -- -- -- -- -- -- -- --
2017-07-31 23:00:00 -- -- -- -- -- -- -- -- --
2017-07-31 22:00:00 -- -- -- -- -- -- -- -- --
2017-07-31 21:00:00 -- -- -- -- -- -- -- -- --
2017-07-31 20:00:00 -- -- -- -- -- -- -- -- --
2017-07-31 19:00:00 -- -- -- -- -- -- -- -- --
2017-07-31 18:00:00 -- -- -- -- -- -- -- -- --
2017-07-31 17:00:00 -- -- -- -- -- -- -- -- --
2017-07-31 16:00:00 -- -- -- -- -- -- -- -- --
2017-07-31 15:00:00 -- -- -- -- -- -- -- -- --
2017-07-31 14:00:00 -- -- -- -- -- -- -- -- --
2017-07-31 13:00:00 -- -- -- -- -- -- -- -- --
2017-07-31 12:00:00 -- -- -- -- -- -- -- -- --
2017-07-31 11:00:00 -- -- -- -- -- -- -- -- --
2017-07-31 10:00:00 -- -- -- -- -- -- -- -- --
2017-07-31 09:00:00 -- -- -- -- -- -- -- -- --
2017-07-31 08:00:00 -- -- -- -- -- -- -- -- --
2017-07-31 07:00:00 -- -- -- -- -- -- -- -- --
2017-07-31 06:00:00 -- -- -- -- -- -- -- -- --
2017-07-31 05:00:00 -- -- -- -- -- -- -- -- --
2017-07-31 04:00:00 -- -- -- -- -- -- -- -- --
2017-07-31 03:00:00 -- -- -- -- -- -- -- -- --
2017-07-31 02:00:00 -- -- -- -- -- -- -- -- --
2017-07-31 01:00:00 -- -- -- -- -- -- -- -- --
2017-07-31 00:00:00 -- -- -- -- -- -- -- -- --
2017-07-30 23:00:00 -- -- -- -- -- -- -- -- --
2017-07-30 22:00:00 -- -- -- -- -- -- -- -- --
2017-07-30 21:00:00 -- -- -- -- -- -- -- -- --
2017-07-30 20:00:00 -- -- -- -- -- -- -- -- --
2017-07-30 19:00:00 -- -- -- -- -- -- -- -- --
2017-07-30 18:00:00 -- -- -- -- -- -- -- -- --
2017-07-30 17:00:00 -- -- -- -- -- -- -- -- --
2017-07-30 16:00:00 -- -- -- -- -- -- -- -- --
2017-07-30 15:00:00 -- -- -- -- -- -- -- -- --
2017-07-30 14:00:00 -- -- -- -- -- -- -- -- --
2017-07-30 13:00:00 -- -- -- -- -- -- -- -- --
2017-07-30 12:00:00 -- -- -- -- -- -- -- -- --
2017-07-30 11:00:00 -- -- -- -- -- -- -- -- --
2017-07-30 10:00:00 -- -- -- -- -- -- -- -- --
2017-07-30 09:00:00 -- -- -- -- -- -- -- -- --
2017-07-30 08:00:00 -- -- -- -- -- -- -- -- --
2017-07-30 07:00:00 -- -- -- -- -- -- -- -- --
2017-07-30 06:00:00 -- -- -- -- -- -- -- -- --
2017-07-30 05:00:00 -- -- -- -- -- -- -- -- --
2017-07-30 04:00:00 -- -- -- -- -- -- -- -- --
2017-07-30 03:00:00 -- -- -- -- -- -- -- -- --
2017-07-30 02:00:00 -- -- -- -- -- -- -- -- --
2017-07-30 01:00:00 -- -- -- -- -- -- -- -- --
2017-07-30 00:00:00 -- -- -- -- -- -- -- -- --
2017-07-29 23:00:00 -- -- -- -- -- -- -- -- --
2017-07-29 22:00:00 -- -- -- -- -- -- -- -- --
2017-07-29 21:00:00 -- -- -- -- -- -- -- -- --
2017-07-29 20:00:00 -- -- -- -- -- -- -- -- --
2017-07-29 19:00:00 -- -- -- -- -- -- -- -- --
2017-07-29 18:00:00 -- -- -- -- -- -- -- -- --
2017-07-29 17:00:00 -- -- -- -- -- -- -- -- --
2017-07-29 16:00:00 -- -- -- -- -- -- -- -- --
2017-07-29 15:00:00 -- -- -- -- -- -- -- -- --
2017-07-29 14:00:00 -- -- -- -- -- -- -- -- --
2017-07-29 13:00:00 -- -- -- -- -- -- -- -- --
2017-07-29 12:00:00 -- -- -- -- -- -- -- -- --
2017-07-29 11:00:00 -- -- -- -- -- -- -- -- --
2017-07-29 10:00:00 -- -- -- -- -- -- -- -- --
2017-07-29 09:00:00 -- -- -- -- -- -- -- -- --
2017-07-29 08:00:00 -- -- -- -- -- -- -- -- --
2017-07-29 07:00:00 -- -- -- -- -- -- -- -- --
2017-07-29 06:00:00 -- -- -- -- -- -- -- -- --
2017-07-29 05:00:00 -- -- -- -- -- -- -- -- --
2017-07-29 04:00:00 -- -- -- -- -- -- -- -- --
2017-07-29 03:00:00 -- -- -- -- -- -- -- -- --
2017-07-29 02:00:00 -- -- -- -- -- -- -- -- --
2017-07-29 01:00:00 -- -- -- -- -- -- -- -- --
2017-07-29 00:00:00 -- -- -- -- -- -- -- -- --
2017-07-28 23:00:00 -- -- -- -- -- -- -- -- --
2017-07-28 22:00:00 -- -- -- -- -- -- -- -- --
2017-07-28 21:00:00 -- -- -- -- -- -- -- -- --
2017-07-28 20:00:00 -- -- -- -- -- -- -- -- --
2017-07-28 19:00:00 -- -- -- -- -- -- -- -- --
2017-07-28 18:00:00 -- -- -- -- -- -- -- -- --
2017-07-28 17:00:00 -- -- -- -- -- -- -- -- --
2017-07-28 16:00:00 -- -- -- -- -- -- -- -- --
2017-07-28 15:00:00 -- -- -- -- -- -- -- -- --
2017-07-28 14:00:00 -- -- -- -- -- -- -- -- --
2017-07-28 13:00:00 -- -- -- -- -- -- -- -- --
2017-07-28 12:00:00 -- -- -- -- -- -- -- -- --
2017-07-28 11:00:00 -- -- -- -- -- -- -- -- --
2017-07-28 10:00:00 -- -- -- -- -- -- -- -- --
2017-07-28 09:00:00 -- -- -- -- -- -- -- -- --
2017-07-28 08:00:00 -- -- -- -- -- -- -- -- --
2017-07-28 07:00:00 -- -- -- -- -- -- -- -- --
2017-07-28 06:00:00 -- -- -- -- -- -- -- -- --
2017-07-28 05:00:00 -- -- -- -- -- -- -- -- --
2017-07-28 04:00:00 -- -- -- -- -- -- -- -- --
2017-07-28 03:00:00 -- -- -- -- -- -- -- -- --
2017-07-28 02:00:00 -- -- -- -- -- -- -- -- --
2017-07-28 01:00:00 -- -- -- -- -- -- -- -- --
2017-07-28 00:00:00 -- -- -- -- -- -- -- -- --
2017-07-27 23:00:00 -- -- -- -- -- -- -- -- --
2017-07-27 22:00:00 -- -- -- -- -- -- -- -- --
2017-07-27 21:00:00 -- -- -- -- -- -- -- -- --
2017-07-27 20:00:00 -- -- -- -- -- -- -- -- --
2017-07-27 19:00:00 -- -- -- -- -- -- -- -- --
2017-07-27 18:00:00 -- -- -- -- -- -- -- -- --
2017-07-27 17:00:00 -- -- -- -- -- -- -- -- --
2017-07-27 16:00:00 -- -- -- -- -- -- -- -- --
2017-07-27 15:00:00 -- -- -- -- -- -- -- -- --
2017-07-27 14:00:00 -- -- -- -- -- -- -- -- --
2017-07-27 13:00:00 -- -- -- -- -- -- -- -- --
2017-07-27 12:00:00 -- -- -- -- -- -- -- -- --
2017-07-27 11:00:00 -- -- -- -- -- -- -- -- --
2017-07-27 10:00:00 -- -- -- -- -- -- -- -- --
2017-07-27 09:00:00 -- -- -- -- -- -- -- -- --
2017-07-27 08:00:00 -- -- -- -- -- -- -- -- --
2017-07-27 07:00:00 -- -- -- -- -- -- -- -- --
2017-07-27 06:00:00 -- -- -- -- -- -- -- -- --
2017-07-27 05:00:00 -- -- -- -- -- -- -- -- --
2017-07-27 04:00:00 -- -- -- -- -- -- -- -- --
2017-07-27 03:00:00 -- -- -- -- -- -- -- -- --
2017-07-27 02:00:00 -- -- -- -- -- -- -- -- --
2017-07-27 01:00:00 -- -- -- -- -- -- -- -- --
2017-07-27 00:00:00 -- -- -- -- -- -- -- -- --
2017-07-26 23:00:00 -- -- -- -- -- -- -- -- --
2017-07-26 22:00:00 -- -- -- -- -- -- -- -- --
2017-07-26 21:00:00 -- -- -- -- -- -- -- -- --
2017-07-26 20:00:00 -- -- -- -- -- -- -- -- --
2017-07-26 19:00:00 -- -- -- -- -- -- -- -- --
2017-07-26 18:00:00 -- -- -- -- -- -- -- -- --
2017-07-26 17:00:00 -- -- -- -- -- -- -- -- --
2017-07-26 16:00:00 -- -- -- -- -- -- -- -- --
2017-07-26 15:00:00 -- -- -- -- -- -- -- -- --
2017-07-26 14:00:00 33.8 5 Sur 19 Sur 0 -- -- --
2017-07-26 13:00:00 33.1 7 Sur 17 Sur 0 -- -- --
2017-07-26 12:00:00 31 6 Sudeste 12 Este 0 -- -- --
2017-07-26 11:00:00 27.3 3 Sudeste 10 Este 0 -- -- --
2017-07-26 10:00:00 23.4 3 Sudeste 6 Sudeste 0 -- -- --
2017-07-26 09:00:00 20 0 Calma 5 Noroeste 0 -- -- --
2017-07-26 08:00:00 19.8 0 Calma 6 Noroeste 0 -- -- --
2017-07-26 07:00:00 20 6 Noroeste 10 Noroeste 0 -- -- --
2017-07-26 06:00:00 21 4 Noroeste 7 Noroeste 0 -- -- --
2017-07-26 05:00:00 23.1 2 Oeste 9 Norte 0 -- -- --
2017-07-26 04:00:00 24.7 2 Norte 17 Norte 0 -- -- --
2017-07-26 03:00:00 25.2 7 Norte 15 Nordeste 0 -- -- --
2017-07-26 02:00:00 24.9 6 Noroeste 17 Norte 0 -- -- --
2017-07-26 01:00:00 26.5 5 Norte 19 Norte 0 -- -- --
2017-07-26 00:00:00 25.8 4 Noroeste 14 Norte 0 -- -- --
2017-07-25 23:00:00 27.3 5 Noroeste 16 Noroeste 0 -- -- --
2017-07-25 22:00:00 28.8 6 Noroeste 16 Noroeste 0 -- -- --
2017-07-25 21:00:00 31.7 9 Norte 24 Noroeste 0 -- -- --
2017-07-25 20:00:00 34.1 11 Norte 22 Nordeste 0 -- -- --
2017-07-25 19:00:00 36.2 10 Norte 24 Noroeste 0 -- -- --
2017-07-25 18:00:00 35.8 9 Norte 24 Noroeste 0 -- -- --
2017-07-25 17:00:00 35.4 6 Noroeste 19 Noroeste 0 -- -- --
2017-07-25 16:00:00 35 4 Este 16 Norte 0 -- -- --
2017-07-25 15:00:00 34 5 Sur 14 Nordeste 0 -- -- --
2017-07-25 14:00:00 32.4 4 Este 16 Este 0 -- -- --
2017-07-25 13:00:00 30 4 Este 12 Este 0 -- -- --
2017-07-25 12:00:00 27.4 4 Norte 8 Norte 0 -- -- --
2017-07-25 11:00:00 27.4 5 Norte 9 Noroeste 0 -- -- --
2017-07-25 10:00:00 24.2 3 Nordeste 7 Norte 0 -- -- --
2017-07-25 09:00:00 20.4 2 Noroeste 7 Noroeste 0 -- -- --
2017-07-25 08:00:00 18.7 6 Noroeste 8 Noroeste 0 -- -- --
2017-07-25 07:00:00 19.3 3 Noroeste 9 Noroeste 0 -- -- --
2017-07-25 06:00:00 20.6 6 Noroeste 9 Noroeste 0 -- -- --
2017-07-25 05:00:00 22.4 4 Noroeste 15 Norte 0 -- -- --
2017-07-25 04:00:00 22.5 7 Noroeste 14 Noroeste 0 -- -- --
2017-07-25 03:00:00 23.1 4 Noroeste 20 Noroeste 0 -- -- --
2017-07-25 02:00:00 23.2 9 Noroeste 18 Noroeste 0 -- -- --
2017-07-25 01:00:00 23.6 8 Oeste 18 Oeste 0 -- -- --
2017-07-25 00:00:00 24.5 6 Noroeste 12 Noroeste 0 -- -- --
2017-07-24 23:00:00 25.6 5 Noroeste 9 Noroeste 0 -- -- --
2017-07-24 22:00:00 27.5 6 Noroeste 10 Norte 0 -- -- --
2017-07-24 21:00:00 30.5 9 Noroeste 19 Nordeste 0 -- -- --
2017-07-24 20:00:00 32.7 12 Norte 26 Norte 0 -- -- --
2017-07-24 19:00:00 34.5 11 Norte 26 Noroeste 0 -- -- --
2017-07-24 18:00:00 35 13 Noroeste 28 Norte 0 -- -- --
2017-07-24 17:00:00 35.1 12 Norte 26 Noroeste 0 -- -- --
2017-07-24 16:00:00 34.4 10 Norte 22 Norte 0 -- -- --
2017-07-24 15:00:00 -- -- -- -- -- -- -- -- --
2017-07-24 14:00:00 -- -- -- -- -- -- -- -- --
2017-07-24 13:00:00 -- -- -- -- -- -- -- -- --
2017-07-24 12:00:00 -- -- -- -- -- -- -- -- --
2017-07-24 11:00:00 -- -- -- -- -- -- -- -- --
2017-07-24 10:00:00 -- -- -- -- -- -- -- -- --
2017-07-24 09:00:00 -- -- -- -- -- -- -- -- --
2017-07-24 08:00:00 -- -- -- -- -- -- -- -- --
2017-07-24 07:00:00 -- -- -- -- -- -- -- -- --
2017-07-24 06:00:00 -- -- -- -- -- -- -- -- --
2017-07-24 05:00:00 -- -- -- -- -- -- -- -- --
2017-07-24 04:00:00 -- -- -- -- -- -- -- -- --
2017-07-24 03:00:00 -- -- -- -- -- -- -- -- --
2017-07-24 02:00:00 -- -- -- -- -- -- -- -- --
2017-07-24 01:00:00 -- -- -- -- -- -- -- -- --
2017-07-24 00:00:00 -- -- -- -- -- -- -- -- --
2017-07-23 23:00:00 -- -- -- -- -- -- -- -- --
2017-07-23 22:00:00 -- -- -- -- -- -- -- -- --
2017-07-23 21:00:00 -- -- -- -- -- -- -- -- --
2017-07-23 20:00:00 -- -- -- -- -- -- -- -- --
2017-07-23 19:00:00 -- -- -- -- -- -- -- -- --
2017-07-23 18:00:00 -- -- -- -- -- -- -- -- --
2017-07-23 17:00:00 -- -- -- -- -- -- -- -- --
2017-07-23 16:00:00 -- -- -- -- -- -- -- -- --
2017-07-23 15:00:00 -- -- -- -- -- -- -- -- --
2017-07-23 14:00:00 -- -- -- -- -- -- -- -- --
2017-07-23 13:00:00 -- -- -- -- -- -- -- -- --
2017-07-23 12:00:00 -- -- -- -- -- -- -- -- --
2017-07-23 11:00:00 -- -- -- -- -- -- -- -- --
2017-07-23 10:00:00 -- -- -- -- -- -- -- -- --
2017-07-23 09:00:00 -- -- -- -- -- -- -- -- --
2017-07-23 08:00:00 -- -- -- -- -- -- -- -- --
2017-07-23 07:00:00 -- -- -- -- -- -- -- -- --
2017-07-23 06:00:00 -- -- -- -- -- -- -- -- --
2017-07-23 05:00:00 -- -- -- -- -- -- -- -- --
2017-07-23 04:00:00 -- -- -- -- -- -- -- -- --
2017-07-23 03:00:00 -- -- -- -- -- -- -- -- --
2017-07-23 02:00:00 -- -- -- -- -- -- -- -- --
2017-07-23 01:00:00 -- -- -- -- -- -- -- -- --
2017-07-23 00:00:00 -- -- -- -- -- -- -- -- --